Time;durP1;ratioP1;P1;durP2;ratioP2;P2;SDS_P1;SDS_P2;PMS_P1;PMS_P2;Temp;Humidity;BMP_temperature;BMP_pressure;BME280_temperature;BME280_humidity;BME280_pressure;Samples;Min_cycle;Max_cycle;Signal;HPM_P1;HPM_P2
2023/02/19 00:01:30;;;;;;;16.50;16.00;;;22.10;59.90;;;;;;4952163;29;20483;-63
2023/02/19 00:04:01;;;;;;;16.40;15.90;;;22.10;59.90;;;;;;4952147;29;21033;-63
2023/02/19 00:06:29;;;;;;;17.03;16.33;;;22.10;59.90;;;;;;4951941;29;20538;-63
2023/02/19 00:08:57;;;;;;;15.40;14.90;;;22.10;59.90;;;;;;4953402;28;20468;-63
2023/02/19 00:11:26;;;;;;;15.77;15.27;;;22.10;60.00;;;;;;4971248;28;20454;-63
2023/02/19 00:13:56;;;;;;;15.97;15.47;;;22.10;60.00;;;;;;4971213;28;20448;-63
2023/02/19 00:16:24;;;;;;;16.10;15.60;;;22.10;60.00;;;;;;4971413;28;20448;-63
2023/02/19 00:18:52;;;;;;;16.37;15.87;;;22.10;60.00;;;;;;4956734;28;20499;-63
2023/02/19 00:21:19;;;;;;;15.50;15.10;;;22.10;60.00;;;;;;4951748;29;20954;-63
2023/02/19 00:23:49;;;;;;;15.30;14.80;;;22.10;60.00;;;;;;4951613;29;20531;-63
2023/02/19 00:26:16;;;;;;;15.70;15.30;;;22.10;60.10;;;;;;4951385;29;20453;-63
2023/02/19 00:28:43;;;;;;;15.37;14.87;;;22.10;60.10;;;;;;4963850;28;20982;-65
2023/02/19 00:31:17;;;;;;;15.63;15.13;;;22.00;60.00;;;;;;4970713;28;20969;-65
2023/02/19 00:33:44;;;;;;;16.10;15.70;;;22.00;60.10;;;;;;4970755;28;20513;-65
2023/02/19 00:36:11;;;;;;;16.13;15.53;;;22.00;60.10;;;;;;4954849;28;20997;-65
2023/02/19 00:38:38;;;;;;;16.17;15.77;;;22.00;60.10;;;;;;4951348;29;20488;-65
2023/02/19 00:41:17;;;;;;;15.80;15.30;;;22.00;60.10;;;;;;4968007;28;20458;-65
2023/02/19 00:43:45;;;;;;;15.47;15.00;;;22.00;60.10;;;;;;4970682;28;20447;-66
2023/02/19 00:46:13;;;;;;;16.00;15.60;;;22.00;60.10;;;;;;4970243;28;20460;-65
2023/02/19 00:48:40;;;;;;;16.00;15.60;;;22.00;60.10;;;;;;4970355;28;21016;-65
2023/02/19 00:51:07;;;;;;;16.00;15.60;;;22.00;60.10;;;;;;4968042;28;20496;-65
2023/02/19 00:53:33;;;;;;;16.33;15.83;;;22.00;60.10;;;;;;4951059;29;20543;-65
2023/02/19 00:56:00;;;;;;;16.30;15.80;;;22.00;60.10;;;;;;4950948;29;20449;-65
2023/02/19 00:58:27;;;;;;;15.60;15.20;;;22.00;60.10;;;;;;4950882;29;20535;-65
2023/02/19 01:00:54;;;;;;;15.60;15.20;;;22.00;60.10;;;;;;4951223;29;20451;-65
2023/02/19 01:03:22;;;;;;;15.40;15.00;;;21.90;60.00;;;;;;4953950;28;20826;-65
2023/02/19 01:05:49;;;;;;;16.40;15.90;;;21.90;60.00;;;;;;4970020;28;20845;-66
2023/02/19 01:08:16;;;;;;;15.77;15.37;;;21.90;60.00;;;;;;4970235;28;20553;-66
2023/02/19 01:10:43;;;;;;;17.27;16.77;;;21.90;60.00;;;;;;4970420;28;20530;-66
2023/02/19 01:13:10;;;;;;;15.50;15.00;;;21.90;60.20;;;;;;4956059;28;20444;-66
2023/02/19 01:15:37;;;;;;;15.57;15.10;;;21.90;60.30;;;;;;4951243;28;20449;-66
2023/02/19 01:18:05;;;;;;;15.90;15.50;;;21.90;60.30;;;;;;4950809;29;20495;-66
2023/02/19 01:20:33;;;;;;;17.30;16.80;;;21.90;60.30;;;;;;4950804;29;20811;-66
2023/02/19 01:23:00;;;;;;;15.67;15.17;;;21.90;60.30;;;;;;4966841;28;20455;-66
2023/02/19 01:25:26;;;;;;;16.07;15.57;;;21.90;60.30;;;;;;4969979;28;20450;-65
2023/02/19 01:27:53;;;;;;;16.10;15.60;;;21.90;60.30;;;;;;4970005;28;20464;-66
2023/02/19 01:30:20;;;;;;;17.00;16.50;;;21.90;60.30;;;;;;4970211;28;20448;-66
2023/02/19 01:32:47;;;;;;;16.27;15.83;;;21.90;60.30;;;;;;4969114;28;20998;-66
2023/02/19 01:35:14;;;;;;;16.40;15.90;;;21.90;60.30;;;;;;4950825;29;20548;-66
2023/02/19 01:37:42;;;;;;;15.83;15.43;;;21.90;60.30;;;;;;4950568;29;20559;-66
2023/02/19 01:40:09;;;;;;;15.20;14.80;;;21.90;60.30;;;;;;4950763;29;20531;-66
2023/02/19 01:42:36;;;;;;;17.13;16.53;;;21.80;60.20;;;;;;4950728;29;20535;-65
2023/02/19 01:45:26;;;;;;;15.80;15.30;;;21.80;60.20;;;;;;4954572;28;20523;-66
2023/02/19 01:48:02;;;;;;;14.87;14.47;;;21.80;60.20;;;;;;4969472;28;20472;-65
2023/02/19 01:50:32;;;;;;;16.13;15.63;;;21.80;60.30;;;;;;4969797;28;20449;-66
2023/02/19 01:53:05;;;;;;;14.90;14.50;;;21.80;60.40;;;;;;4969893;28;20452;-66
2023/02/19 01:55:33;;;;;;;15.83;15.33;;;21.80;60.50;;;;;;4969649;28;20479;-66
2023/02/19 01:58:01;;;;;;;15.87;15.47;;;21.80;60.50;;;;;;4959343;28;20495;-66
2023/02/19 02:00:28;;;;;;;15.37;14.97;;;21.80;60.50;;;;;;4950490;29;20548;-66
2023/02/19 02:02:57;;;;;;;15.60;15.20;;;21.80;60.50;;;;;;4950535;29;20465;-65
2023/02/19 02:05:42;;;;;;;14.80;14.40;;;21.80;60.50;;;;;;4952450;28;20456;-66
2023/02/19 02:10:55;;;;;;;16.40;15.90;;;21.80;60.50;;;;;;4969339;28;20431;-66
2023/02/19 02:13:22;;;;;;;14.97;14.57;;;21.80;60.50;;;;;;4969670;28;20446;-66
2023/02/19 02:15:56;;;;;;;15.77;15.27;;;21.80;60.50;;;;;;4963616;28;20452;-66
2023/02/19 02:18:31;;;;;;;17.03;16.53;;;21.80;60.50;;;;;;4950191;29;20492;-66
2023/02/19 02:21:15;;;;;;;15.90;15.40;;;21.80;60.50;;;;;;4950283;29;20534;-65
2023/02/19 02:24:00;;;;;;;16.27;15.77;;;21.80;60.60;;;;;;4951952;28;20452;-66
2023/02/19 02:26:38;;;;;;;16.33;15.83;;;21.80;60.70;;;;;;4969327;28;20451;-66
2023/02/19 02:29:31;;;;;;;18.00;17.33;;;21.80;60.70;;;;;;4969364;28;20478;-65
2023/02/19 02:32:03;;;;;;;16.67;16.17;;;21.80;60.80;;;;;;4969514;28;20452;-65
2023/02/19 02:34:39;;;;;;;16.43;15.93;;;21.80;60.70;;;;;;4961192;28;20461;-65
2023/02/19 02:37:09;;;;;;;16.87;16.33;;;21.80;60.70;;;;;;4949840;29;20454;-65
2023/02/19 02:39:37;;;;;;;21.40;20.80;;;21.80;60.70;;;;;;4949980;29;21102;-65
2023/02/19 02:47:43;;;;;;;15.90;15.40;;;21.70;60.60;;;;;;4964797;28;20463;-66
2023/02/19 02:50:16;;;;;;;15.20;14.80;;;21.70;60.60;;;;;;4972550;28;20439;-65
2023/02/19 02:55:36;;;;;;;16.10;15.70;;;21.70;60.70;;;;;;4956500;28;20440;-65
2023/02/19 02:58:03;;;;;;;15.57;15.13;;;21.70;60.70;;;;;;4952956;29;20555;-65
2023/02/19 03:02:09;;;;;;;16.00;15.50;;;21.70;60.80;;;;;;4971164;28;20454;-65
2023/02/19 03:03:27;;;;;;;16.23;15.80;;;21.70;60.90;;;;;;4972083;28;20813;-65
2023/02/19 03:06:01;;;;;;;16.23;15.73;;;21.70;60.90;;;;;;4972118;28;20501;-65
2023/02/19 03:08:30;;;;;;;15.90;15.50;;;21.70;60.90;;;;;;4972180;28;20464;-66
2023/02/19 03:19:17;;;;;;;17.07;16.57;;;21.70;60.90;;;;;;4972213;28;20527;-65
2023/02/19 03:19:30;;;;;;;16.90;16.40;;;21.70;60.90;;;;;;4960438;28;20509;-65
2023/02/19 03:22:01;;;;;;;18.23;17.53;;;21.70;61.00;;;;;;4972067;28;20447;-66
2023/02/19 03:27:20;;;;;;;17.50;16.90;;;21.70;61.00;;;;;;4965326;28;20452;-65
2023/02/19 03:29:50;;;;;;;17.00;16.50;;;21.70;61.00;;;;;;4952660;29;20459;-65
2023/02/19 03:32:21;;;;;;;16.80;16.30;;;21.70;61.00;;;;;;4952578;29;20455;-65
2023/02/19 03:34:55;;;;;;;16.20;15.70;;;21.70;61.00;;;;;;4952911;29;20455;-66
2023/02/19 03:37:28;;;;;;;16.93;16.43;;;21.70;61.10;;;;;;4952342;29;20457;-66
2023/02/19 03:39:56;;;;;;;16.50;16.00;;;21.70;61.10;;;;;;4952423;29;20491;-66
2023/02/19 03:42:35;;;;;;;16.57;16.07;;;21.70;61.20;;;;;;4963781;28;20458;-66
2023/02/19 03:45:14;;;;;;;17.47;16.87;;;21.70;61.20;;;;;;4971980;28;20490;-66
2023/02/19 03:47:50;;;;;;;16.40;15.90;;;21.70;61.20;;;;;;4971439;28;20562;-65
2023/02/19 03:50:21;;;;;;;15.80;15.30;;;21.70;61.20;;;;;;4971643;28;20450;-65
2023/02/19 03:52:57;;;;;;;16.50;16.00;;;21.70;61.20;;;;;;4971602;28;20475;-66
2023/02/19 03:55:31;;;;;;;16.70;16.20;;;21.70;61.20;;;;;;4971225;28;20447;-65
2023/02/19 03:58:04;;;;;;;16.97;16.47;;;21.70;61.30;;;;;;4963826;28;20476;-66
2023/02/19 04:00:36;;;;;;;17.67;16.87;;;21.70;61.20;;;;;;4971490;28;20685;-65
2023/02/19 04:03:11;;;;;;;18.03;17.43;;;21.70;61.20;;;;;;4971555;28;20568;-65
2023/02/19 04:05:46;;;;;;;16.73;16.23;;;21.70;61.20;;;;;;4971231;28;20447;-66
2023/02/19 04:08:16;;;;;;;16.40;15.93;;;21.60;61.20;;;;;;4971183;28;20475;-65
2023/02/19 04:10:45;;;;;;;17.60;16.90;;;21.60;61.30;;;;;;4965326;28;20449;-65
2023/02/19 04:13:18;;;;;;;17.43;16.83;;;21.60;61.60;;;;;;4951956;29;20495;-65
2023/02/19 04:15:48;;;;;;;16.80;16.30;;;21.70;62.00;;;;;;4951847;29;20444;-65
2023/02/19 04:18:18;;;;;;;17.60;17.03;;;21.70;62.10;;;;;;4951734;29;20602;-66
2023/02/19 04:20:48;;;;;;;17.37;16.77;;;21.70;62.40;;;;;;4971087;28;20440;-65
2023/02/19 04:23:18;;;;;;;16.53;16.03;;;21.70;62.50;;;;;;4971096;28;20447;-65
2023/02/19 04:25:47;;;;;;;16.90;16.40;;;21.70;62.50;;;;;;4970313;28;20951;-66
2023/02/19 04:28:15;;;;;;;17.10;16.50;;;21.70;62.50;;;;;;4970886;28;20468;-66
2023/02/19 04:30:42;;;;;;;18.00;17.40;;;21.70;62.50;;;;;;4971031;28;20546;-66
2023/02/19 04:33:09;;;;;;;18.27;17.67;;;21.70;62.60;;;;;;4969272;28;20824;-66
2023/02/19 04:35:36;;;;;;;17.50;17.00;;;21.80;63.40;;;;;;4970667;28;21010;-65
2023/02/19 04:38:04;;;;;;;17.13;16.63;;;21.80;62.50;;;;;;4970716;28;20506;-65
2023/02/19 04:40:31;;;;;;;17.10;16.50;;;21.80;62.50;;;;;;4969171;28;20877;-65
2023/02/19 04:42:58;;;;;;;18.53;18.03;;;21.80;62.50;;;;;;4954720;28;20544;-66
2023/02/19 04:45:24;;;;;;;17.60;17.10;;;21.80;62.60;;;;;;4951456;29;20485;-65
2023/02/19 04:47:51;;;;;;;18.30;17.70;;;21.80;62.60;;;;;;4951269;29;21062;-66
2023/02/19 04:50:18;;;;;;;16.87;16.33;;;21.80;62.60;;;;;;4951424;29;20531;-66
2023/02/19 04:52:45;;;;;;;17.47;16.97;;;21.80;62.70;;;;;;4951360;28;20528;-65
2023/02/19 04:55:13;;;;;;;17.03;16.53;;;21.80;62.70;;;;;;4955076;28;20537;-66
2023/02/19 04:57:40;;;;;;;16.50;16.00;;;21.80;62.70;;;;;;4951174;29;20559;-66
2023/02/19 05:00:09;;;;;;;16.63;16.13;;;21.80;63.40;;;;;;4951291;29;20586;-66
2023/02/19 05:02:35;;;;;;;18.43;17.87;;;21.90;62.70;;;;;;4951298;29;20449;-66
2023/02/19 05:05:02;;;;;;;18.00;17.40;;;21.90;62.70;;;;;;4951231;29;20455;-66
2023/02/19 05:07:29;;;;;;;18.00;17.40;;;21.90;62.60;;;;;;4950164;28;20495;-66
2023/02/19 05:09:58;;;;;;;18.53;17.93;;;21.90;63.30;;;;;;4968730;28;20550;-66
2023/02/19 05:12:26;;;;;;;16.87;16.37;;;21.90;62.50;;;;;;4970397;28;20455;-66
2023/02/19 05:14:53;;;;;;;17.70;17.20;;;21.90;62.40;;;;;;4970378;28;20832;-66
2023/02/19 05:17:20;;;;;;;17.80;17.23;;;21.90;62.30;;;;;;4969937;28;20538;-66
2023/02/19 05:19:47;;;;;;;18.00;17.40;;;21.90;62.40;;;;;;4970209;28;21093;-65
2023/02/19 05:22:14;;;;;;;17.50;17.00;;;21.90;62.40;;;;;;4965806;28;20460;-65
2023/02/19 05:24:40;;;;;;;18.20;17.60;;;21.90;62.50;;;;;;4951061;29;20540;-65
2023/02/19 05:27:07;;;;;;;18.13;17.53;;;21.90;62.40;;;;;;4950670;29;20881;-66
2023/02/19 05:29:35;;;;;;;18.23;17.63;;;22.00;62.50;;;;;;4950930;29;20544;-66
2023/02/19 05:32:02;;;;;;;16.83;16.33;;;22.00;62.50;;;;;;4950908;29;20445;-66
2023/02/19 05:34:29;;;;;;;18.77;18.10;;;22.00;62.40;;;;;;4950815;29;20531;-65
2023/02/19 05:36:56;;;;;;;19.70;19.10;;;22.00;62.40;;;;;;4956307;28;20454;-66
2023/02/19 05:39:24;;;;;;;18.17;17.57;;;22.00;62.30;;;;;;4969868;28;21014;-66
2023/02/19 05:41:51;;;;;;;17.33;16.83;;;22.00;62.20;;;;;;4970152;28;20539;-66
2023/02/19 05:44:17;;;;;;;17.60;17.07;;;22.00;62.20;;;;;;4969994;28;20527;-66
2023/02/19 05:46:46;;;;;;;18.90;18.30;;;22.00;62.30;;;;;;4951985;28;20456;-66
2023/02/19 05:49:12;;;;;;;19.40;18.80;;;22.00;62.40;;;;;;4950937;29;20563;-66
2023/02/19 05:51:39;;;;;;;19.27;18.57;;;22.00;62.30;;;;;;4950665;29;20535;-66
2023/02/19 05:54:06;;;;;;;18.07;17.57;;;22.10;62.40;;;;;;4950603;29;20527;-66
2023/02/19 05:56:35;;;;;;;24.43;23.60;;;22.00;62.30;;;;;;4950489;29;20451;-66
2023/02/19 05:59:05;;;;;;;21.87;21.27;;;22.00;62.30;;;;;;4964384;28;20464;-58
2023/02/19 06:01:32;;;;;;;24.17;23.37;;;22.10;62.40;;;;;;4954014;28;20459;-66
2023/02/19 06:04:00;;;;;;;24.00;23.20;;;22.10;62.20;;;;;;4968233;28;20454;-66
2023/02/19 06:06:27;;;;;;;23.90;23.20;;;22.10;62.50;;;;;;4969680;28;20452;-66
2023/02/19 06:08:54;;;;;;;17.40;16.87;;;22.20;62.60;;;;;;4969708;28;20908;-66
2023/02/19 06:11:21;;;;;;;19.50;18.90;;;22.20;62.50;;;;;;4969742;28;20458;-66
2023/02/19 06:13:49;;;;;;;20.23;19.60;;;22.20;62.80;;;;;;4960998;28;20462;-65
2023/02/19 06:16:17;;;;;;;21.13;20.50;;;22.30;63.20;;;;;;4957581;28;20824;-65
2023/02/19 06:18:44;;;;;;;21.00;20.30;;;22.30;62.90;;;;;;4950451;28;20882;-58
2023/02/19 06:21:15;;;;;;;22.00;21.23;;;22.40;63.60;;;;;;4954691;29;20571;-58
2023/02/19 06:23:42;;;;;;;22.60;21.80;;;22.40;63.70;;;;;;4958554;28;20454;-56
2023/02/19 06:26:12;;;;;;;21.17;20.37;;;22.40;63.60;;;;;;4973220;28;20527;-60
2023/02/19 06:28:39;;;;;;;21.70;21.00;;;22.50;63.60;;;;;;4973279;28;20572;-55
2023/02/19 06:31:08;;;;;;;20.73;19.83;;;22.50;63.60;;;;;;4973180;28;20451;-59
2023/02/19 06:33:35;;;;;;;20.77;20.07;;;22.60;63.50;;;;;;4972941;28;20447;-56
2023/02/19 06:36:11;;;;;;;19.40;18.80;;;22.60;63.30;;;;;;4968100;28;20822;-59
2023/02/19 06:38:40;;;;;;;20.07;19.40;;;22.60;63.20;;;;;;4961438;28;20476;-57
2023/02/19 06:41:07;;;;;;;19.73;19.03;;;22.60;63.20;;;;;;4954057;29;20919;-59
2023/02/19 06:43:35;;;;;;;21.90;21.20;;;22.70;63.00;;;;;;4953808;29;20520;-54
2023/02/19 06:46:03;;;;;;;19.80;19.13;;;22.70;62.90;;;;;;4956748;28;20458;-60
2023/02/19 06:48:31;;;;;;;19.00;18.40;;;22.70;62.80;;;;;;4972352;28;20479;-56
2023/02/19 06:50:59;;;;;;;19.57;18.97;;;22.70;62.60;;;;;;4972553;28;20443;-63
2023/02/19 06:53:26;;;;;;;19.23;18.60;;;22.80;62.20;;;;;;4972637;28;21056;-62
2023/02/19 06:55:58;;;;;;;19.43;18.63;;;22.80;62.30;;;;;;4972713;28;20460;-62
2023/02/19 06:58:25;;;;;;;21.20;20.50;;;22.80;62.40;;;;;;4968381;28;20987;-62
2023/02/19 07:00:52;;;;;;;20.13;19.53;;;22.80;62.70;;;;;;4953661;29;20567;-62
2023/02/19 07:03:19;;;;;;;21.93;21.13;;;22.80;62.50;;;;;;4953474;29;20444;-62
2023/02/19 07:05:46;;;;;;;20.57;19.87;;;22.80;62.40;;;;;;4953482;29;20480;-59
2023/02/19 07:08:13;;;;;;;19.93;19.20;;;22.80;62.30;;;;;;4953688;29;20547;-62
2023/02/19 07:10:40;;;;;;;20.20;19.50;;;22.90;62.30;;;;;;4953900;29;20876;-62
2023/02/19 07:13:08;;;;;;;19.00;18.40;;;22.90;62.20;;;;;;4958768;28;20534;-66
2023/02/19 07:15:35;;;;;;;20.77;20.07;;;22.90;61.80;;;;;;4972836;28;20543;-64
2023/02/19 07:18:04;;;;;;;21.40;20.70;;;22.90;61.80;;;;;;4972469;28;20826;-63
2023/02/19 07:20:30;;;;;;;21.10;20.40;;;22.90;61.80;;;;;;4972644;28;20617;-62
2023/02/19 07:22:57;;;;;;;20.90;20.20;;;23.00;61.60;;;;;;4972596;28;20873;-63
2023/02/19 07:25:24;;;;;;;20.40;19.60;;;23.00;61.50;;;;;;4972404;28;20877;-62
2023/02/19 07:27:51;;;;;;;19.80;19.20;;;23.00;61.50;;;;;;4972271;28;20468;-63
2023/02/19 07:30:19;;;;;;;19.97;19.37;;;23.00;62.30;;;;;;4972360;28;20444;-63
2023/02/19 07:32:46;;;;;;;20.00;19.30;;;22.90;61.40;;;;;;4972085;28;20825;-62
2023/02/19 07:35:13;;;;;;;20.30;19.47;;;23.00;61.50;;;;;;4972002;28;20455;-63
2023/02/19 07:37:41;;;;;;;21.43;20.63;;;23.00;61.60;;;;;;4971794;28;20482;-62
2023/02/19 07:40:08;;;;;;;21.87;21.10;;;23.00;61.50;;;;;;4971918;28;20851;-61
2023/02/19 07:42:35;;;;;;;20.70;20.00;;;23.00;61.40;;;;;;4971434;28;20462;-63
2023/02/19 07:45:02;;;;;;;21.47;20.50;;;23.00;61.50;;;;;;4971874;28;20530;-63
2023/02/19 07:47:30;;;;;;;20.47;19.73;;;23.00;61.40;;;;;;4971318;28;20571;-63
2023/02/19 07:49:57;;;;;;;19.70;19.00;;;23.00;61.30;;;;;;4971689;28;20550;-62
2023/02/19 07:52:24;;;;;;;19.27;18.67;;;23.00;61.30;;;;;;4971691;28;20452;-62
2023/02/19 07:54:51;;;;;;;20.00;19.40;;;23.00;61.40;;;;;;4971693;28;20448;-61
2023/02/19 07:57:18;;;;;;;18.27;17.77;;;23.00;61.20;;;;;;4969607;28;20452;-61
2023/02/19 07:59:45;;;;;;;33.83;32.73;;;23.10;61.10;;;;;;4971339;28;20878;-63
2023/02/19 08:05:03;;;;;;;33.80;32.70;;;23.10;61.00;;;;;;4951786;29;20451;-63
2023/02/19 08:07:34;;;;;;;33.70;32.60;;;23.10;60.90;;;;;;4951947;28;20475;-67
2023/02/19 08:15:26;;;;;;;34.70;33.40;;;23.20;60.50;;;;;;4951738;28;20494;-68
2023/02/19 08:17:53;;;;;;;32.50;31.40;;;23.30;60.50;;;;;;4951309;28;20544;-66
2023/02/19 08:20:21;;;;;;;33.13;32.13;;;23.30;60.40;;;;;;4951709;29;20584;-66
2023/02/19 08:22:48;;;;;;;34.13;33.03;;;23.30;60.30;;;;;;4952026;29;21011;-66
2023/02/19 08:25:15;;;;;;;34.87;33.57;;;23.30;60.10;;;;;;4951898;29;20545;-65
2023/02/19 08:27:42;;;;;;;35.27;34.13;;;23.40;60.20;;;;;;4951818;29;20475;-66
2023/02/19 08:30:09;;;;;;;35.67;34.47;;;23.40;60.00;;;;;;4951753;29;20524;-65
2023/02/19 08:32:36;;;;;;;36.37;35.13;;;23.40;60.00;;;;;;4951602;28;20896;-64
2023/02/19 08:35:03;;;;;;;34.93;33.73;;;23.40;59.90;;;;;;4951683;29;20539;-59
2023/02/19 08:37:31;;;;;;;32.10;31.00;;;23.40;60.10;;;;;;4951233;29;20544;-65
2023/02/19 08:39:58;;;;;;;32.30;31.30;;;23.40;59.90;;;;;;4951572;29;20544;-67
2023/02/19 08:42:25;;;;;;;31.87;30.80;;;23.50;59.90;;;;;;4950661;29;20548;-66
2023/02/19 08:44:52;;;;;;;33.30;32.20;;;23.50;59.70;;;;;;4951793;28;20889;-65
2023/02/19 08:47:19;;;;;;;34.00;32.80;;;23.50;59.70;;;;;;4970212;28;20493;-65
2023/02/19 08:49:46;;;;;;;34.30;32.80;;;23.50;59.60;;;;;;4970889;28;20527;-65
2023/02/19 08:52:13;;;;;;;33.63;32.40;;;23.50;59.50;;;;;;4970657;28;20455;-65
2023/02/19 08:54:41;;;;;;;34.67;33.47;;;23.50;59.50;;;;;;4957293;28;20449;-66
2023/02/19 08:57:08;;;;;;;34.73;33.53;;;23.50;59.40;;;;;;4951100;29;20488;-67
2023/02/19 08:59:34;;;;;;;34.93;33.73;;;23.50;59.40;;;;;;4951348;29;20536;-66
2023/02/19 09:02:01;;;;;;;33.23;32.03;;;23.60;59.40;;;;;;4951218;29;20849;-66
2023/02/19 09:04:29;;;;;;;34.00;32.90;;;23.50;59.20;;;;;;4951323;29;20449;-67
2023/02/19 09:06:56;;;;;;;34.70;33.60;;;23.60;59.20;;;;;;4963450;28;20452;-63
2023/02/19 09:09:23;;;;;;;35.40;34.20;;;23.60;59.20;;;;;;4970529;28;20917;-65
2023/02/19 09:11:51;;;;;;;31.63;30.63;;;23.60;59.10;;;;;;4970575;28;20507;-65
2023/02/19 09:14:18;;;;;;;31.97;30.77;;;23.60;59.00;;;;;;4970368;28;20450;-62
2023/02/19 09:16:45;;;;;;;30.33;29.33;;;23.60;59.00;;;;;;4970266;28;20447;-64
2023/02/19 09:19:12;;;;;;;30.97;29.80;;;23.60;59.00;;;;;;4970235;28;20562;-60
2023/02/19 09:21:38;;;;;;;33.00;31.90;;;23.60;58.90;;;;;;4968574;28;20595;-63
2023/02/19 09:24:08;;;;;;;33.90;32.80;;;23.60;58.90;;;;;;4960877;28;20537;-64
2023/02/19 09:26:35;;;;;;;33.80;32.60;;;23.60;58.80;;;;;;4950615;29;20440;-63
2023/02/19 09:29:03;;;;;;;32.73;31.63;;;23.70;58.80;;;;;;4950748;29;20995;-63
2023/02/19 09:31:30;;;;;;;35.30;34.20;;;23.60;58.70;;;;;;4950818;29;20544;-65
2023/02/19 09:33:57;;;;;;;32.00;30.90;;;23.70;58.80;;;;;;4954669;28;20452;-64
2023/02/19 09:36:23;;;;;;;34.67;33.57;;;23.70;58.70;;;;;;4950759;29;20544;-68
2023/02/19 09:38:50;;;;;;;30.73;29.67;;;23.70;58.70;;;;;;4950708;29;20846;-64
2023/02/19 09:41:26;;;;;;;31.97;30.97;;;23.70;58.60;;;;;;4950667;29;20572;-70
2023/02/19 09:43:53;;;;;;;34.83;33.63;;;23.70;58.50;;;;;;4950630;29;20974;-67
2023/02/19 09:46:28;;;;;;;31.13;30.13;;;23.70;58.60;;;;;;4951372;28;20495;-62
2023/02/19 09:49:03;;;;;;;35.20;34.10;;;23.70;58.50;;;;;;4950517;29;21032;-67
2023/02/19 09:51:32;;;;;;;35.10;33.97;;;23.70;58.50;;;;;;4950656;29;20788;-64
2023/02/19 09:53:59;;;;;;;37.17;35.97;;;23.70;58.50;;;;;;4954348;28;20452;-63
2023/02/19 09:56:27;;;;;;;35.40;34.20;;;23.70;58.40;;;;;;4973245;28;20450;-66
2023/02/19 09:58:57;;;;;;;35.47;34.27;;;23.70;58.50;;;;;;4973134;28;20558;-64
2023/02/19 10:01:30;;;;;;;33.67;32.53;;;23.60;58.40;;;;;;4972538;28;20574;-64
2023/02/19 10:03:58;;;;;;;34.70;33.50;;;23.60;58.50;;;;;;4973227;28;20448;-67
2023/02/19 10:06:28;;;;;;;36.37;35.07;;;23.60;58.60;;;;;;4973098;28;20543;-68
2023/02/19 10:09:18;;;;;;;35.73;34.53;;;23.50;58.70;;;;;;4973225;28;20480;-58
2023/02/19 10:11:46;;;;;;;33.13;31.93;;;23.50;58.80;;;;;;4973342;28;20448;-63
2023/02/19 10:14:17;;;;;;;33.33;32.23;;;23.50;59.00;;;;;;4971885;28;20930;-64
2023/02/19 10:16:48;;;;;;;35.37;34.07;;;23.50;59.00;;;;;;4953584;29;20457;-63
2023/02/19 10:19:15;;;;;;;29.03;27.93;;;23.50;59.00;;;;;;4953533;28;20450;-67
2023/02/19 10:21:43;;;;;;;32.97;31.77;;;23.60;59.50;;;;;;4965793;28;20563;-67
2023/02/19 10:24:16;;;;;;;32.20;31.00;;;23.60;58.70;;;;;;4954421;28;20464;-67
2023/02/19 10:26:43;;;;;;;35.67;34.47;;;23.60;58.20;;;;;;4953593;29;20456;-68
2023/02/19 10:29:11;;;;;;;32.43;31.23;;;23.60;58.30;;;;;;4953811;29;20556;-67
2023/02/19 10:31:37;;;;;;;33.10;32.00;;;23.60;58.40;;;;;;4953575;28;20532;-67
2023/02/19 10:34:17;;;;;;;34.50;32.97;;;23.50;58.40;;;;;;4953561;28;20552;-67
2023/02/19 10:36:49;;;;;;;32.97;31.20;;;23.60;58.60;;;;;;4953266;29;20539;-67
2023/02/19 10:39:38;;;;;;;36.47;33.80;;;23.60;59.00;;;;;;4953450;28;20464;-65
2023/02/19 10:42:05;;;;;;;37.03;34.80;;;23.60;60.60;;;;;;4954497;29;20484;-65
2023/02/19 10:44:41;;;;;;;35.93;34.27;;;23.60;62.50;;;;;;4953775;29;20540;-66
2023/02/19 10:47:09;;;;;;;38.33;36.20;;;23.70;64.70;;;;;;4952965;29;20452;-66
2023/02/19 10:49:42;;;;;;;37.10;34.93;;;23.70;66.30;;;;;;4953326;29;20819;-66
2023/02/19 10:52:16;;;;;;;35.70;33.30;;;23.70;66.20;;;;;;4953283;29;20449;-66
2023/02/19 10:54:44;;;;;;;20.33;19.07;;;23.70;66.70;;;;;;4953551;29;20449;-65
2023/02/19 10:57:29;;;;;;;14.63;13.32;;;23.70;66.40;;;;;;4951864;29;20470;-67
2023/02/19 10:59:57;;;;;;;17.80;16.40;;;23.70;66.00;;;;;;4952083;29;20201;-67
2023/02/19 11:02:25;;;;;;;16.20;15.20;;;23.80;65.40;;;;;;4952911;29;20481;-68
2023/02/19 11:05:16;;;;;;;16.10;15.10;;;23.90;64.80;;;;;;4953018;29;20463;-68
2023/02/19 11:07:46;;;;;;;14.83;14.03;;;23.90;64.20;;;;;;4952597;29;20473;-67
2023/02/19 11:10:28;;;;;;;16.07;15.17;;;23.90;63.80;;;;;;4953063;29;20449;-67
2023/02/19 11:12:58;;;;;;;16.13;14.90;;;23.80;63.30;;;;;;4952997;29;20456;-67
2023/02/19 11:15:29;;;;;;;17.13;16.23;;;23.80;63.10;;;;;;4953297;29;20814;-67
2023/02/19 11:17:59;;;;;;;15.17;14.27;;;23.80;62.80;;;;;;4952866;29;20805;-67
2023/02/19 11:20:29;;;;;;;14.37;13.60;;;23.80;62.60;;;;;;4952947;29;20451;-67
2023/02/19 11:23:01;;;;;;;15.73;14.83;;;23.70;62.30;;;;;;4953037;29;20441;-67
2023/02/19 11:25:28;;;;;;;14.67;13.93;;;23.70;62.10;;;;;;4952710;29;20441;-67
2023/02/19 11:28:05;;;;;;;15.40;14.70;;;23.70;62.00;;;;;;4952662;29;20465;-66
2023/02/19 11:30:35;;;;;;;15.63;14.80;;;23.70;61.90;;;;;;4952792;29;20452;-67
2023/02/19 11:33:24;;;;;;;14.90;14.20;;;23.60;61.60;;;;;;4952678;29;20445;-66
2023/02/19 11:35:59;;;;;;;14.40;13.80;;;23.60;61.50;;;;;;4952629;29;20450;-67
2023/02/19 11:38:26;;;;;;;15.10;14.40;;;23.60;61.50;;;;;;4952614;29;20472;-67
2023/02/19 11:41:03;;;;;;;16.17;15.43;;;23.60;61.40;;;;;;4952503;29;20487;-66
2023/02/19 11:43:51;;;;;;;18.07;17.03;;;23.60;61.20;;;;;;4952588;29;20487;-66
2023/02/19 11:46:22;;;;;;;15.03;14.43;;;23.50;61.00;;;;;;4952234;29;20457;-66
2023/02/19 11:48:55;;;;;;;14.80;14.20;;;23.50;60.90;;;;;;5003890;23;20496;-58
2023/02/19 11:51:37;;;;;;;16.20;15.50;;;23.50;60.80;;;;;;5003872;28;20521;-60
2023/02/19 11:54:16;;;;;;;14.60;14.10;;;23.50;60.60;;;;;;5010710;28;20990;-58
2023/02/19 11:56:44;;;;;;;16.03;15.33;;;23.50;60.50;;;;;;5010367;28;20811;-60
2023/02/19 11:59:20;;;;;;;14.20;13.70;;;23.40;60.30;;;;;;5010509;28;20470;-58
2023/02/19 12:02:16;;;;;;;17.27;16.43;;;23.40;60.30;;;;;;5010350;28;20483;-57
2023/02/19 12:05:16;;;;;;;14.30;13.70;;;23.40;60.20;;;;;;5010418;28;20442;-56
2023/02/19 12:08:04;;;;;;;14.13;13.53;;;23.40;60.10;;;;;;5010287;28;20812;-61
2023/02/19 12:10:43;;;;;;;14.53;13.63;;;23.30;59.90;;;;;;5010387;28;20450;-61
2023/02/19 12:13:21;;;;;;;14.30;13.60;;;23.30;59.90;;;;;;5010464;28;20454;-62
2023/02/19 12:16:18;;;;;;;14.40;13.80;;;23.30;59.90;;;;;;5010139;28;20450;-61
2023/02/19 12:19:18;;;;;;;14.97;14.27;;;23.20;59.70;;;;;;5010038;28;20824;-62
2023/02/19 12:22:04;;;;;;;15.77;14.87;;;23.20;59.70;;;;;;5003559;28;20535;-63
2023/02/19 12:24:57;;;;;;;13.83;13.43;;;23.20;59.70;;;;;;5010189;28;20504;-63
2023/02/19 12:27:38;;;;;;;14.13;13.43;;;23.20;59.70;;;;;;5009944;28;20499;-63
2023/02/19 12:30:32;;;;;;;14.43;13.90;;;23.20;59.70;;;;;;5010093;28;20449;-59
2023/02/19 12:33:35;;;;;;;14.43;13.93;;;23.10;59.60;;;;;;5009953;28;20442;-60
2023/02/19 12:36:13;;;;;;;14.07;13.47;;;23.00;59.50;;;;;;4963382;28;20480;-60
2023/02/19 12:38:44;;;;;;;14.20;13.70;;;23.00;59.60;;;;;;5009886;28;20476;-63
2023/02/19 12:41:33;;;;;;;14.53;13.93;;;23.00;59.60;;;;;;5009751;28;20442;-59
2023/02/19 12:44:04;;;;;;;13.63;12.93;;;23.00;59.60;;;;;;5009911;28;20434;-63
2023/02/19 12:46:35;;;;;;;13.50;13.00;;;22.90;59.50;;;;;;5009753;28;20446;-63
2023/02/19 12:49:10;;;;;;;14.57;13.97;;;22.90;59.50;;;;;;5009577;28;20473;-63
2023/02/19 12:51:43;;;;;;;15.53;14.93;;;22.90;59.60;;;;;;5009718;28;20441;-61
2023/02/19 12:54:16;;;;;;;14.23;13.73;;;22.90;59.50;;;;;;5009836;28;20442;-64
2023/02/19 12:56:49;;;;;;;12.97;12.47;;;22.90;59.50;;;;;;5009523;28;20450;-63
2023/02/19 12:59:24;;;;;;;14.63;14.03;;;22.80;59.40;;;;;;5009576;28;20499;-64
2023/02/19 13:01:56;;;;;;;13.63;13.13;;;22.80;59.40;;;;;;5009617;28;20485;-64
2023/02/19 13:04:30;;;;;;;14.07;13.53;;;22.80;59.40;;;;;;5009620;28;20819;-59
2023/02/19 13:07:01;;;;;;;15.33;14.70;;;22.80;59.50;;;;;;5009282;28;20499;-59
2023/02/19 13:09:33;;;;;;;14.60;14.10;;;22.80;59.50;;;;;;5009558;28;21180;-59
2023/02/19 13:12:05;;;;;;;14.23;13.73;;;22.70;59.50;;;;;;5009423;28;20521;-60
2023/02/19 13:14:36;;;;;;;13.97;13.47;;;22.70;59.50;;;;;;5009505;28;20954;-60